createdAt,value
2023-02-12T00:01:21.811Z,40.42
2023-02-12T00:03:51.593Z,41.16
2023-02-12T00:06:19.736Z,40.10
2023-02-12T00:08:51.448Z,40.78
2023-02-12T00:11:22.486Z,41.19
2023-02-12T00:13:50.829Z,39.81
2023-02-12T00:16:21.231Z,40.62
2023-02-12T00:18:49.666Z,40.79
2023-02-12T00:21:19.057Z,42.02
2023-02-12T00:23:46.990Z,40.17
2023-02-12T00:26:17.143Z,40.37
2023-02-12T00:28:47.445Z,41.62
2023-02-12T00:31:17.795Z,41.30
2023-02-12T00:33:46.111Z,42.99
2023-02-12T00:36:16.334Z,41.34
2023-02-12T00:38:46.097Z,41.39
2023-02-12T00:41:14.646Z,43.37
2023-02-12T00:43:42.724Z,42.78
2023-02-12T00:46:10.903Z,43.21
2023-02-12T00:48:38.859Z,43.24
2023-02-12T00:51:07.708Z,43.84
2023-02-12T00:53:35.879Z,42.20
2023-02-12T00:56:06.322Z,41.55
2023-02-12T00:58:35.750Z,43.15
2023-02-12T01:01:03.955Z,41.65
2023-02-12T01:03:31.902Z,42.52
2023-02-12T01:05:59.951Z,42.56
2023-02-12T01:08:29.599Z,40.30
2023-02-12T01:10:59.768Z,40.44
2023-02-12T01:13:30.402Z,40.18
2023-02-12T01:16:11.008Z,40.00
2023-02-12T01:18:39.702Z,39.72
2023-02-12T01:21:13.102Z,40.41
2023-02-12T01:23:43.524Z,39.78
2023-02-12T01:26:12.813Z,39.11
2023-02-12T01:28:44.300Z,39.93
2023-02-12T01:31:14.081Z,39.77
2023-02-12T01:33:42.311Z,39.66
2023-02-12T01:36:12.187Z,40.90
2023-02-12T01:38:40.281Z,41.28
2023-02-12T01:41:12.252Z,40.33
2023-02-12T01:43:42.592Z,41.37
2023-02-12T01:46:14.615Z,40.96
2023-02-12T01:48:46.563Z,41.42
2023-02-12T01:51:23.315Z,42.18
2023-02-12T01:53:59.304Z,42.52
2023-02-12T01:56:27.451Z,42.40
2023-02-12T01:58:58.044Z,42.89
2023-02-12T02:01:29.938Z,41.77
2023-02-12T02:04:03.423Z,41.95
2023-02-12T02:06:35.237Z,42.75
2023-02-12T02:09:04.731Z,40.46
2023-02-12T02:11:50.062Z,41.59
2023-02-12T02:14:35.559Z,41.46
2023-02-12T02:17:25.114Z,41.86
2023-02-12T02:20:33.632Z,42.53
2023-02-12T02:23:21.770Z,41.27
2023-02-12T02:26:31.714Z,42.22
2023-02-12T02:29:15.790Z,42.60
2023-02-12T02:31:50.004Z,42.71
2023-02-12T02:34:28.694Z,42.44
2023-02-12T02:37:09.605Z,42.51
2023-02-12T02:39:42.845Z,41.44
2023-02-12T02:42:18.542Z,41.98
2023-02-12T02:44:54.689Z,40.18
2023-02-12T02:47:33.177Z,42.28
2023-02-12T02:50:07.147Z,42.52
2023-02-12T02:52:41.468Z,42.22
2023-02-12T02:55:15.586Z,41.81
2023-02-12T02:57:50.059Z,42.83
2023-02-12T03:00:21.544Z,41.42
2023-02-12T03:02:57.711Z,41.30
2023-02-12T03:05:31.567Z,41.70
2023-02-12T03:08:06.020Z,41.20
2023-02-12T03:10:41.359Z,41.94
2023-02-12T03:13:14.196Z,41.19
2023-02-12T03:15:49.813Z,42.78
2023-02-12T03:18:26.556Z,41.77
2023-02-12T03:21:02.827Z,41.61
2023-02-12T03:23:40.067Z,43.17
2023-02-12T03:26:13.730Z,42.14
2023-02-12T03:28:42.078Z,43.35
2023-02-12T03:31:19.655Z,43.17
2023-02-12T03:34:03.523Z,42.78
2023-02-12T03:36:39.315Z,43.96
2023-02-12T03:39:14.040Z,43.95
2023-02-12T03:41:47.283Z,43.42
2023-02-12T03:44:28.079Z,44.25
2023-02-12T03:47:07.340Z,45.15
2023-02-12T03:49:48.385Z,43.37
2023-02-12T03:52:16.368Z,44.52
2023-02-12T03:54:44.346Z,44.28
2023-02-12T03:57:18.839Z,42.76
2023-02-12T03:59:49.207Z,43.38
2023-02-12T04:02:19.266Z,42.36
2023-02-12T04:04:49.494Z,42.33
2023-02-12T04:07:18.864Z,43.54
2023-02-12T04:09:46.866Z,42.85
2023-02-12T04:12:32.026Z,43.56
2023-02-12T04:15:15.489Z,42.21
2023-02-12T04:17:52.466Z,43.90
2023-02-12T04:20:34.007Z,42.32
2023-02-12T04:23:17.837Z,42.66
2023-02-12T04:25:59.086Z,42.50
2023-02-12T04:28:39.155Z,42.33
2023-02-12T04:31:16.934Z,41.59
2023-02-12T04:33:54.013Z,42.10
2023-02-12T04:36:29.551Z,42.86
2023-02-12T04:39:02.822Z,43.46
2023-02-12T04:41:32.679Z,42.72
2023-02-12T04:44:13.973Z,43.60
2023-02-12T04:46:41.899Z,47.92
2023-02-12T04:49:17.337Z,53.14
2023-02-12T04:51:47.829Z,47.92
2023-02-12T04:54:18.036Z,46.70
2023-02-12T04:56:46.899Z,47.19
2023-02-12T04:59:15.076Z,44.32
2023-02-12T05:01:44.276Z,45.17
2023-02-12T05:04:14.774Z,43.45
2023-02-12T05:06:44.304Z,43.40
2023-02-12T05:09:15.958Z,42.40
2023-02-12T05:11:44.322Z,42.22
2023-02-12T05:14:13.234Z,44.32
2023-02-12T05:16:41.151Z,46.97
2023-02-12T05:19:09.841Z,48.62
2023-02-12T05:21:38.095Z,48.49
2023-02-12T05:24:06.617Z,46.69
2023-02-12T05:26:36.504Z,46.67
2023-02-12T05:29:04.747Z,47.95
2023-02-12T05:31:32.686Z,50.26
2023-02-12T05:34:00.578Z,53.70
2023-02-12T05:36:29.450Z,57.43
2023-02-12T05:39:00.204Z,55.13
2023-02-12T05:41:28.229Z,56.31
2023-02-12T05:43:57.421Z,56.53
2023-02-12T05:46:25.411Z,54.90
2023-02-12T05:48:56.311Z,56.81
2023-02-12T05:51:27.113Z,57.59
2023-02-12T05:54:00.246Z,56.86
2023-02-12T05:56:30.626Z,55.45
2023-02-12T05:59:03.403Z,56.18
2023-02-12T06:01:33.186Z,58.73
2023-02-12T06:04:01.874Z,60.56
2023-02-12T06:06:30.977Z,59.24
2023-02-12T06:09:00.122Z,60.73
2023-02-12T06:11:28.974Z,60.27
2023-02-12T06:13:56.902Z,59.20
2023-02-12T06:16:29.409Z,57.82
2023-02-12T06:18:58.263Z,58.81
2023-02-12T06:21:27.738Z,60.06
2023-02-12T06:23:56.162Z,56.01
2023-02-12T06:26:25.461Z,56.02
2023-02-12T06:28:53.327Z,57.91
2023-02-12T06:31:23.295Z,58.91
2023-02-12T06:33:54.167Z,58.98
2023-02-12T06:36:23.311Z,65.01
2023-02-12T06:38:51.543Z,65.33
2023-02-12T06:41:20.144Z,65.64
2023-02-12T06:43:48.170Z,64.12
2023-02-12T06:46:16.559Z,66.56
2023-02-12T06:48:44.458Z,67.61
2023-02-12T06:51:17.130Z,75.53
2023-02-12T06:53:46.098Z,79.28
2023-02-12T06:56:15.385Z,76.39
2023-02-12T06:58:45.541Z,82.28
2023-02-12T07:01:17.899Z,88.14
2023-02-12T07:03:50.478Z,84.74
2023-02-12T07:06:20.307Z,86.77
2023-02-12T07:08:48.631Z,82.73
2023-02-12T07:11:17.208Z,80.19
2023-02-12T07:13:46.277Z,76.31
2023-02-12T07:16:16.912Z,76.90
2023-02-12T07:18:46.339Z,89.76
2023-02-12T07:21:15.889Z,90.30
2023-02-12T07:23:50.968Z,93.28
2023-02-12T07:26:20.996Z,82.31
2023-02-12T07:28:48.918Z,78.26
2023-02-12T07:31:19.815Z,65.38
2023-02-12T07:33:49.111Z,66.19
2023-02-12T07:36:19.410Z,60.04
2023-02-12T07:38:48.942Z,62.46
2023-02-12T07:41:19.115Z,60.05
2023-02-12T07:43:49.713Z,63.61
2023-02-12T07:46:20.354Z,68.91
2023-02-12T07:48:48.836Z,77.69
2023-02-12T07:51:19.235Z,89.06
2023-02-12T07:53:49.559Z,86.22
2023-02-12T07:56:20.740Z,83.09
2023-02-12T07:58:51.161Z,78.20
2023-02-12T08:01:22.397Z,73.63
2023-02-12T08:03:51.921Z,74.74
2023-02-12T08:06:22.976Z,83.00
2023-02-12T08:08:54.460Z,85.16
2023-02-12T08:11:22.921Z,85.48
2023-02-12T08:13:51.472Z,77.96
2023-02-12T08:16:21.508Z,67.33
2023-02-12T08:18:50.618Z,71.57
2023-02-12T08:21:20.516Z,69.56
2023-02-12T08:23:50.872Z,64.19
2023-02-12T08:26:23.100Z,68.47
2023-02-12T08:28:54.301Z,73.43
2023-02-12T08:31:25.133Z,71.32
2023-02-12T08:33:54.744Z,71.29
2023-02-12T08:36:25.126Z,74.67
2023-02-12T08:38:53.469Z,74.00
2023-02-12T08:41:25.130Z,75.33
2023-02-12T08:43:55.354Z,73.62
2023-02-12T08:46:26.141Z,74.36
2023-02-12T08:48:55.643Z,74.06
2023-02-12T08:51:25.741Z,69.57
2023-02-12T08:53:56.076Z,74.12
2023-02-12T08:56:26.590Z,74.52
2023-02-12T08:58:54.511Z,78.79
2023-02-12T09:01:24.646Z,76.18
2023-02-12T09:03:53.619Z,81.22
2023-02-12T09:06:24.019Z,82.46
2023-02-12T09:08:53.353Z,79.24
2023-02-12T09:11:26.667Z,81.41
2023-02-12T09:13:55.942Z,77.18
2023-02-12T09:16:23.856Z,76.74
2023-02-12T09:18:52.146Z,82.19
2023-02-12T09:21:20.354Z,76.39
2023-02-12T09:23:48.613Z,75.88
2023-02-12T09:26:20.733Z,86.08
2023-02-12T09:28:50.166Z,70.51
2023-02-12T09:31:23.251Z,67.30
2023-02-12T09:33:54.710Z,65.60
2023-02-12T09:36:23.243Z,62.46
2023-02-12T09:38:51.276Z,60.46
2023-02-12T09:41:47.338Z,56.82
2023-02-12T09:44:23.944Z,59.07
2023-02-12T09:47:00.139Z,53.20
2023-02-12T09:50:01.836Z,51.06
2023-02-12T09:52:31.006Z,52.25
2023-02-12T09:55:00.588Z,50.83
2023-02-12T09:57:33.963Z,49.57
2023-02-12T10:00:07.566Z,53.30
2023-02-12T10:02:39.984Z,52.27
2023-02-12T10:05:17.389Z,51.70
2023-02-12T10:08:10.632Z,51.37
2023-02-12T10:10:51.760Z,42.84
2023-02-12T10:13:35.234Z,44.17
2023-02-12T10:16:18.361Z,46.26
2023-02-12T10:19:10.084Z,46.11
2023-02-12T10:21:55.546Z,46.45
2023-02-12T10:24:51.015Z,42.37
2023-02-12T10:27:27.026Z,46.22
2023-02-12T10:29:59.640Z,37.58
2023-02-12T10:32:35.042Z,36.55
2023-02-12T10:35:15.570Z,32.42
2023-02-12T10:37:50.147Z,32.46
2023-02-12T10:40:23.782Z,36.48
2023-02-12T10:42:54.332Z,37.64
2023-02-12T10:45:26.299Z,41.76
2023-02-12T10:48:07.224Z,40.78
2023-02-12T10:50:48.617Z,41.97
2023-02-12T10:53:22.222Z,42.29
2023-02-12T10:55:50.652Z,41.86
2023-02-12T10:58:23.037Z,40.86
2023-02-12T11:00:59.189Z,37.49
2023-02-12T11:03:34.273Z,40.39
2023-02-12T11:06:16.309Z,38.73
2023-02-12T11:08:44.906Z,37.69
2023-02-12T11:11:15.740Z,32.91
2023-02-12T11:13:49.742Z,29.40
2023-02-12T11:16:30.031Z,31.59
2023-02-12T11:19:04.747Z,31.98
2023-02-12T11:21:35.339Z,29.26
2023-02-12T11:24:23.001Z,29.26
2023-02-12T11:26:50.966Z,30.84
2023-02-12T11:29:21.104Z,30.01
2023-02-12T11:32:03.099Z,29.27
2023-02-12T11:34:31.199Z,27.69
2023-02-12T11:37:02.000Z,24.94
2023-02-12T11:39:33.811Z,24.63
2023-02-12T11:42:06.205Z,23.01
2023-02-12T11:44:39.561Z,23.31
2023-02-12T11:47:12.195Z,22.57
2023-02-12T11:49:44.547Z,20.84
2023-02-12T11:52:22.457Z,20.15
2023-02-12T11:54:54.153Z,17.68
2023-02-12T11:57:39.655Z,18.56
2023-02-12T12:00:18.397Z,19.30
2023-02-12T12:02:54.663Z,19.15
2023-02-12T12:05:27.443Z,19.30
2023-02-12T12:08:04.140Z,19.91
2023-02-12T12:10:39.447Z,18.69
2023-02-12T12:13:17.308Z,18.65
2023-02-12T12:16:09.168Z,18.20
2023-02-12T12:19:10.086Z,17.25
2023-02-12T12:21:46.945Z,18.77
2023-02-12T12:24:22.639Z,27.35
2023-02-12T12:27:00.791Z,16.96
2023-02-12T12:29:43.397Z,14.17
2023-02-12T12:32:16.162Z,13.82
2023-02-12T12:34:47.027Z,14.01
2023-02-12T12:37:32.182Z,14.97
2023-02-12T12:40:21.029Z,14.76
2023-02-12T12:43:04.413Z,15.62
2023-02-12T12:45:59.997Z,17.02
2023-02-12T12:48:45.708Z,16.27
2023-02-12T12:51:29.834Z,16.67
2023-02-12T12:54:14.813Z,15.07
2023-02-12T12:57:02.639Z,15.21
2023-02-12T12:59:57.525Z,15.16
2023-02-12T13:02:55.534Z,15.51
2023-02-12T13:06:07.976Z,14.63
2023-02-12T13:09:17.207Z,14.01
2023-02-12T13:12:12.709Z,13.24
2023-02-12T13:14:49.649Z,15.04
2023-02-12T13:17:25.805Z,13.93
2023-02-12T13:20:07.323Z,14.53
2023-02-12T13:22:44.310Z,13.77
2023-02-12T13:25:26.921Z,13.07
2023-02-12T13:27:59.393Z,12.34
2023-02-12T13:30:35.128Z,12.68
2023-02-12T13:33:11.169Z,12.03
2023-02-12T13:35:45.190Z,11.65
2023-02-12T13:38:21.898Z,11.23
2023-02-12T13:40:50.983Z,11.41
2023-02-12T13:43:44.837Z,10.40
2023-02-12T13:46:26.314Z,10.04
2023-02-12T13:49:06.347Z,12.13
2023-02-12T13:51:44.499Z,10.94
2023-02-12T13:54:30.789Z,11.24
2023-02-12T13:57:02.635Z,10.82
2023-02-12T13:59:43.372Z,11.10
2023-02-12T14:02:44.454Z,11.06
2023-02-12T14:05:21.333Z,11.16
2023-02-12T14:07:52.794Z,12.14
2023-02-12T14:10:25.274Z,11.67
2023-02-12T14:12:57.629Z,12.65
2023-02-12T14:15:36.381Z,11.38
2023-02-12T14:18:23.735Z,11.68
2023-02-12T14:21:44.090Z,12.12
2023-02-12T14:24:51.777Z,12.71
2023-02-12T14:27:42.757Z,12.44
2023-02-12T14:30:39.004Z,11.17
2023-02-12T14:33:27.893Z,11.41
2023-02-12T14:36:21.012Z,11.11
2023-02-12T14:39:00.658Z,10.66
2023-02-12T14:41:43.938Z,11.44
2023-02-12T14:44:41.740Z,12.39
2023-02-12T14:47:37.767Z,12.24
2023-02-12T14:50:16.277Z,12.13
2023-02-12T14:52:54.382Z,15.31
2023-02-12T14:55:27.132Z,15.54
2023-02-12T14:58:02.198Z,15.19
2023-02-12T15:00:37.451Z,12.03
2023-02-12T15:03:25.268Z,13.07
2023-02-12T15:06:05.252Z,13.37
2023-02-12T15:08:42.527Z,18.33
2023-02-12T15:11:30.928Z,14.28
2023-02-12T15:14:05.437Z,16.15
2023-02-12T15:16:46.846Z,13.16
2023-02-12T15:19:31.337Z,11.78
2023-02-12T15:21:59.724Z,10.48
2023-02-12T15:24:28.793Z,10.09
2023-02-12T15:27:01.045Z,9.38
2023-02-12T15:29:33.348Z,9.37
2023-02-12T15:32:06.740Z,9.55
2023-02-12T15:34:39.007Z,10.13
2023-02-12T15:37:10.666Z,9.56
2023-02-12T15:39:44.537Z,10.55
2023-02-12T15:42:31.721Z,9.06
2023-02-12T15:45:22.119Z,7.75
2023-02-12T15:48:01.943Z,6.92
2023-02-12T15:50:34.144Z,6.53
2023-02-12T15:53:03.925Z,6.08
2023-02-12T15:55:45.605Z,6.18
2023-02-12T15:58:25.100Z,6.35
2023-02-12T16:00:54.925Z,6.07
2023-02-12T16:03:25.021Z,6.13
2023-02-12T16:06:02.085Z,6.70
2023-02-12T16:08:34.008Z,6.66
2023-02-12T16:11:13.802Z,6.08
2023-02-12T16:13:46.909Z,5.97
2023-02-12T16:16:24.747Z,7.04
2023-02-12T16:19:08.029Z,7.21
2023-02-12T16:21:40.225Z,7.37
2023-02-12T16:24:32.982Z,7.97
2023-02-12T16:27:18.047Z,7.67
2023-02-12T16:29:49.381Z,7.02
2023-02-12T16:32:35.851Z,7.07
2023-02-12T16:35:08.335Z,6.90
2023-02-12T16:37:49.522Z,8.30
2023-02-12T16:40:27.230Z,8.54
2023-02-12T16:43:01.877Z,8.30
2023-02-12T16:45:41.717Z,8.46
2023-02-12T16:48:18.073Z,8.17
2023-02-12T16:50:50.578Z,8.43
2023-02-12T16:53:43.791Z,8.88
2023-02-12T16:56:18.483Z,10.70
2023-02-12T16:58:48.418Z,15.02
2023-02-12T17:01:24.608Z,10.84
2023-02-12T17:03:53.094Z,10.24
2023-02-12T17:06:23.438Z,9.76
2023-02-12T17:08:53.295Z,10.47
2023-02-12T17:11:23.183Z,10.09
2023-02-12T17:13:53.955Z,9.09
2023-02-12T17:16:31.828Z,9.98
2023-02-12T17:19:00.806Z,10.22
2023-02-12T17:21:32.584Z,10.43
2023-02-12T17:24:01.898Z,9.55
2023-02-12T17:26:29.805Z,9.15
2023-02-12T17:29:05.195Z,10.05
2023-02-12T17:31:33.608Z,15.07
2023-02-12T17:34:02.035Z,12.03
2023-02-12T17:36:29.956Z,10.29
2023-02-12T17:38:57.881Z,10.65
2023-02-12T17:41:27.098Z,9.89
2023-02-12T17:43:55.013Z,9.60
2023-02-12T17:46:26.541Z,9.38
2023-02-12T17:48:54.779Z,10.10
2023-02-12T17:51:23.055Z,9.96
2023-02-12T17:53:51.227Z,9.92
2023-02-12T17:56:21.463Z,10.75
2023-02-12T17:58:51.152Z,10.74
2023-02-12T18:01:21.985Z,10.73
2023-02-12T18:03:51.479Z,11.94
2023-02-12T18:06:24.980Z,11.14
2023-02-12T18:08:53.138Z,10.41
2023-02-12T18:11:21.670Z,10.55
2023-02-12T18:13:53.646Z,10.42
2023-02-12T18:16:22.765Z,15.28
2023-02-12T18:18:50.960Z,35.92
2023-02-12T18:21:19.023Z,23.09
2023-02-12T18:23:47.176Z,12.77
2023-02-12T18:26:18.128Z,11.19
2023-02-12T18:28:46.777Z,14.61
2023-02-12T18:31:16.635Z,14.47
2023-02-12T18:33:44.528Z,14.50
2023-02-12T18:36:15.541Z,15.45
2023-02-12T18:38:45.690Z,19.72
2023-02-12T18:41:17.943Z,16.51
2023-02-12T18:43:46.630Z,15.17
2023-02-12T18:46:18.582Z,16.29
2023-02-12T18:48:47.031Z,19.33
2023-02-12T18:51:17.435Z,19.67
2023-02-12T18:53:46.423Z,17.59
2023-02-12T18:56:14.356Z,21.19
2023-02-12T18:58:42.226Z,19.33
2023-02-12T19:01:15.061Z,20.36
2023-02-12T19:03:44.781Z,18.64
2023-02-12T19:06:13.883Z,16.53
2023-02-12T19:08:41.797Z,18.80
2023-02-12T19:11:12.643Z,21.38
2023-02-12T19:13:41.907Z,25.21
2023-02-12T19:16:11.966Z,23.81
2023-02-12T19:18:39.910Z,20.87
2023-02-12T19:21:12.000Z,16.29
2023-02-12T19:23:40.841Z,16.74
2023-02-12T19:26:11.763Z,19.94
2023-02-12T19:28:40.441Z,18.66
2023-02-12T19:31:15.279Z,14.92
2023-02-12T19:33:44.521Z,16.31
2023-02-12T19:36:16.906Z,20.29
2023-02-12T19:38:45.921Z,21.96
2023-02-12T19:41:15.975Z,18.83
2023-02-12T19:43:44.492Z,18.54
2023-02-12T19:46:14.409Z,16.08
2023-02-12T19:48:42.490Z,14.64
2023-02-12T19:51:16.661Z,15.07
2023-02-12T20:12:32.747Z,14.66
2023-02-12T20:15:02.748Z,14.17
2023-02-12T20:17:30.897Z,14.12
2023-02-12T20:19:59.008Z,14.14
2023-02-12T20:22:26.963Z,15.71
2023-02-12T20:24:55.102Z,15.73
2023-02-12T20:27:23.046Z,15.71
2023-02-12T20:29:52.332Z,15.10
2023-02-12T20:32:20.288Z,14.97
2023-02-12T20:34:51.817Z,15.19
2023-02-12T20:37:19.920Z,15.56
2023-02-12T20:39:48.087Z,15.28
2023-02-12T20:42:15.991Z,15.55
2023-02-12T20:44:43.857Z,15.48
2023-02-12T20:47:13.137Z,15.42
2023-02-12T20:49:41.072Z,14.95
2023-02-12T20:52:09.222Z,15.39
2023-02-12T20:54:39.138Z,15.28
2023-02-12T20:57:07.938Z,15.50
2023-02-12T20:59:35.961Z,15.63
2023-02-12T21:02:05.390Z,15.33
2023-02-12T21:04:35.084Z,16.04
2023-02-12T21:07:03.104Z,15.96
2023-02-12T21:09:31.286Z,16.90
2023-02-12T21:11:59.195Z,16.81
2023-02-12T21:14:27.658Z,18.04
2023-02-12T21:16:57.003Z,18.06
2023-02-12T21:19:26.622Z,19.28
2023-02-12T21:21:56.436Z,18.86
2023-02-12T21:24:26.152Z,19.63
2023-02-12T21:26:55.598Z,20.74
2023-02-12T21:29:26.547Z,21.20
2023-02-12T21:31:55.125Z,21.78
2023-02-12T21:34:24.788Z,23.15
2023-02-12T21:36:56.963Z,23.32
2023-02-12T21:39:27.542Z,24.26
2023-02-12T21:41:58.222Z,24.63
2023-02-12T21:44:26.899Z,24.72
2023-02-12T21:46:55.710Z,24.94
2023-02-12T21:49:28.264Z,25.38
2023-02-12T21:51:59.541Z,25.39
2023-02-12T21:54:28.985Z,25.76
2023-02-12T21:56:57.461Z,25.86
2023-02-12T21:59:26.659Z,26.82
2023-02-12T22:01:58.383Z,27.34
2023-02-12T22:04:27.472Z,27.29
2023-02-12T22:06:58.120Z,28.18
2023-02-12T22:09:26.190Z,28.73
2023-02-12T22:11:54.311Z,27.68
2023-02-12T22:14:23.155Z,27.27
2023-02-12T22:16:51.206Z,28.22
2023-02-12T22:19:19.201Z,27.63
2023-02-12T22:21:47.120Z,27.08
2023-02-12T22:24:17.366Z,27.50
2023-02-12T22:26:46.106Z,27.56
2023-02-12T22:29:16.721Z,27.45
2023-02-12T22:31:47.253Z,31.42
2023-02-12T22:34:18.610Z,31.05
2023-02-12T22:36:47.711Z,30.87
2023-02-12T22:39:18.555Z,30.14
2023-02-12T22:41:46.869Z,29.37
2023-02-12T22:44:20.027Z,28.60
2023-02-12T22:46:49.964Z,28.77
2023-02-12T22:49:18.437Z,29.35
2023-02-12T22:51:46.873Z,29.15
2023-02-12T22:54:18.409Z,28.49
2023-02-12T22:56:46.993Z,28.43
2023-02-12T22:59:15.171Z,28.76
2023-02-12T23:01:44.010Z,29.85
2023-02-12T23:04:16.498Z,32.26
2023-02-12T23:06:45.306Z,32.63
2023-02-12T23:09:18.032Z,32.87
2023-02-12T23:11:46.611Z,29.62
2023-02-12T23:14:14.914Z,30.53
2023-02-12T23:16:43.130Z,30.24
2023-02-12T23:19:12.142Z,28.23
2023-02-12T23:21:40.264Z,26.91
2023-02-12T23:24:08.801Z,26.36
2023-02-12T23:26:38.091Z,26.77
2023-02-12T23:29:06.071Z,26.50
2023-02-12T23:31:34.198Z,27.26
2023-02-12T23:34:02.291Z,28.90
2023-02-12T23:36:30.198Z,29.75
2023-02-12T23:38:59.307Z,27.73
2023-02-12T23:41:27.284Z,27.89
2023-02-12T23:43:56.612Z,28.86
2023-02-12T23:46:24.603Z,28.69
2023-02-12T23:48:52.648Z,29.89
2023-02-12T23:51:20.521Z,31.40
2023-02-12T23:53:48.367Z,31.88
2023-02-12T23:56:16.360Z,32.69
2023-02-12T23:58:44.392Z,34.07
